METAR AND TAF INFORMATION
METAR FOR ENCN
ADDS - METARS form results

(0218 UTC 04 December 2020)
Data provider http://aviationweather.gov/metar/data/
 
METAR text: ENCN 040150Z AUTO 07007KT 5000 -RA FEW008/// SCT014/// BKN022/// 04/03 Q0994
Conditions at: ENCN (KRISTIANSAND/KJE, NO) observed 0150 UTC 04 December 2020
Temperature: 4.0°C (39°F)
Dewpoint: 3.0°C (37°F) [RH = 93%]
Pressure (altimeter): 29.35 inches Hg (994.0 mb)
Winds: from the ENE (70 degrees) at 8 MPH (7 knots; 3.6 m/s)
Visibility: 3 miles ( 5 km)
Ceiling: 2200 feet AGL
Clouds: few clouds at 800 feet AGL
scattered clouds at 1400 feet AGL
broken clouds at 2200 feet AGL
Weather: -RA  (light rain)

METAR text: ENCN 040120Z AUTO 08009KT 4200 -RA VV007 04/02 Q0994
Conditions at: ENCN (KRISTIANSAND/KJE, NO) observed 0120 UTC 04 December 2020
Temperature: 4.0°C (39°F)
Dewpoint: 2.0°C (36°F) [RH = 87%]
Pressure (altimeter): 29.35 inches Hg (994.0 mb)
Winds: from the E (80 degrees) at 10 MPH (9 knots; 4.6 m/s)
Visibility: 2.61 miles (4.20 km)
Ceiling: indefinite ceiling with vertical visibility of 700 feet AGL
Clouds: obscured sky
Weather: -RA  (light rain)

 AIRPORT MAP

 RUNWAY INFORMATION
Runway 04 Runway length 6660 ft Runway width 148 ft
Runway elevation 41 ft Runway displaced threshold 394 ft Runway heading 35
Runway 22 Runway length 6660 ft Runway width 148 ft
Runway elevation 52 ft Runway displaced threshold 623 ft Runway heading 215

 AIRPORT FREQUENCIES
Type ATIS Name INFO Frequency 124.475 MHZ
Type TWR Name TWR Frequency 118.1 MHZ

 AIRPORT NEAR NAVIGATION AIDS
Type NDB Name Odderoy Frequency 372 KHZ
Type VOR-DME Name Svensheia Frequency 112100 KHZ



Powered by Virtual Airlines Manager [v2.6.2]